createdAt,value
2018-08-30T00:00:39.916Z,8.55
2018-08-30T00:03:06.222Z,8.85
2018-08-30T00:05:32.520Z,8.83
2018-08-30T00:07:58.794Z,8.88
2018-08-30T00:10:25.084Z,8.60
2018-08-30T00:12:51.402Z,8.35
2018-08-30T00:15:17.731Z,8.68
2018-08-30T00:17:44.029Z,9.18
2018-08-30T00:20:10.346Z,8.78
2018-08-30T00:22:36.636Z,8.48
2018-08-30T00:25:02.930Z,7.92
2018-08-30T00:27:29.267Z,7.37
2018-08-30T00:29:55.718Z,8.23
2018-08-30T00:32:22.008Z,8.43
2018-08-30T00:34:48.310Z,8.90
2018-08-30T00:37:14.637Z,7.62
2018-08-30T00:39:40.941Z,8.08
2018-08-30T00:42:07.218Z,7.37
2018-08-30T00:44:33.517Z,8.20
2018-08-30T00:47:00.473Z,7.50
2018-08-30T00:49:26.797Z,8.13
2018-08-30T00:51:53.102Z,8.48
2018-08-30T00:54:19.386Z,7.97
2018-08-30T00:56:45.701Z,7.95
2018-08-30T00:59:12.036Z,7.90
2018-08-30T01:01:38.549Z,8.15
2018-08-30T01:04:04.817Z,8.08
2018-08-30T01:06:31.132Z,7.30
2018-08-30T01:08:57.418Z,8.08
2018-08-30T01:11:23.757Z,7.72
2018-08-30T01:13:50.041Z,7.65
2018-08-30T01:16:16.345Z,7.95
2018-08-30T01:18:42.721Z,7.20
2018-08-30T01:21:09.036Z,7.67
2018-08-30T01:23:35.343Z,7.33
2018-08-30T01:26:01.600Z,6.92
2018-08-30T01:28:27.929Z,7.10
2018-08-30T01:30:54.204Z,7.55
2018-08-30T01:33:20.492Z,7.15
2018-08-30T01:35:46.802Z,7.67
2018-08-30T01:38:13.133Z,7.62
2018-08-30T01:40:39.434Z,7.03
2018-08-30T01:43:05.701Z,7.25
2018-08-30T01:45:32.016Z,6.60
2018-08-30T01:47:58.329Z,7.92
2018-08-30T01:50:24.633Z,7.42
2018-08-30T01:52:50.906Z,8.35
2018-08-30T01:55:17.234Z,7.17
2018-08-30T01:57:43.554Z,7.75
2018-08-30T02:00:09.854Z,7.33
2018-08-30T02:02:36.133Z,7.30
2018-08-30T02:05:02.447Z,7.17
2018-08-30T02:07:28.725Z,7.42
2018-08-30T02:09:55.033Z,7.70
2018-08-30T02:12:21.313Z,7.75
2018-08-30T02:14:47.647Z,7.90
2018-08-30T02:17:13.982Z,7.58
2018-08-30T02:19:40.301Z,7.70
2018-08-30T02:22:06.627Z,7.35
2018-08-30T02:24:32.929Z,7.25
2018-08-30T02:26:59.242Z,6.78
2018-08-30T02:29:25.605Z,7.45
2018-08-30T02:31:51.873Z,7.25
2018-08-30T02:34:18.159Z,6.95
2018-08-30T02:36:44.485Z,6.67
2018-08-30T02:39:10.929Z,6.85
2018-08-30T02:41:37.473Z,7.70
2018-08-30T02:44:03.997Z,6.87
2018-08-30T02:46:30.293Z,7.20
2018-08-30T02:48:56.658Z,7.60
2018-08-30T02:51:22.957Z,6.67
2018-08-30T02:53:49.257Z,7.40
2018-08-30T02:56:15.584Z,7.22
2018-08-30T02:58:42.025Z,6.55
2018-08-30T03:01:08.301Z,7.25
2018-08-30T03:03:34.609Z,6.22
2018-08-30T03:06:00.884Z,6.37
2018-08-30T03:08:27.219Z,6.60
2018-08-30T03:10:53.485Z,7.65
2018-08-30T03:13:19.824Z,6.83
2018-08-30T03:15:46.104Z,7.12
2018-08-30T03:18:12.432Z,7.22
2018-08-30T03:20:38.712Z,7.72
2018-08-30T03:23:05.374Z,6.55
2018-08-30T03:25:31.805Z,7.05
2018-08-30T03:27:58.096Z,6.08
2018-08-30T03:30:25.045Z,7.30
2018-08-30T03:32:51.196Z,6.58
2018-08-30T03:35:17.526Z,6.92
2018-08-30T03:37:43.825Z,6.70
2018-08-30T03:40:10.141Z,6.97
2018-08-30T03:42:36.429Z,7.00
2018-08-30T03:45:02.761Z,7.37
2018-08-30T03:47:29.049Z,6.42
2018-08-30T03:49:55.343Z,6.92
2018-08-30T03:52:21.661Z,6.92
2018-08-30T03:54:47.950Z,7.20
2018-08-30T03:57:14.253Z,6.65
2018-08-30T03:59:40.537Z,6.62
2018-08-30T04:02:06.839Z,8.58
2018-08-30T04:04:33.126Z,7.85
2018-08-30T04:06:59.445Z,8.48
2018-08-30T04:09:25.767Z,9.15
2018-08-30T04:11:52.078Z,9.25
2018-08-30T04:14:18.425Z,13.22
2018-08-30T04:16:44.741Z,12.70
2018-08-30T04:19:11.076Z,10.38
2018-08-30T04:21:37.370Z,12.23
2018-08-30T04:24:06.051Z,12.68
2018-08-30T04:26:32.342Z,14.43
2018-08-30T04:28:59.322Z,14.55
2018-08-30T04:31:25.853Z,13.83
2018-08-30T04:33:52.398Z,15.53
2018-08-30T04:36:18.713Z,16.07
2018-08-30T04:38:45.136Z,13.83
2018-08-30T04:41:11.417Z,15.18
2018-08-30T04:43:37.701Z,14.68
2018-08-30T04:46:04.007Z,14.63
2018-08-30T04:48:30.292Z,15.18
2018-08-30T04:50:56.586Z,14.70
2018-08-30T04:53:22.970Z,15.20
2018-08-30T04:55:49.320Z,16.50
2018-08-30T04:58:17.013Z,14.83
2018-08-30T05:00:43.338Z,15.08
2018-08-30T05:03:09.675Z,14.98
2018-08-30T05:05:36.014Z,14.07
2018-08-30T05:08:02.337Z,16.48
2018-08-30T05:10:29.533Z,15.95
2018-08-30T05:12:57.912Z,15.13
2018-08-30T05:15:25.472Z,16.32
2018-08-30T05:17:52.829Z,15.45
2018-08-30T05:20:19.160Z,16.17
2018-08-30T05:22:45.522Z,16.65
2018-08-30T05:25:11.866Z,15.68
2018-08-30T05:27:38.156Z,16.73
2018-08-30T05:30:04.578Z,17.43
2018-08-30T05:32:30.965Z,16.27
2018-08-30T05:34:57.273Z,15.60
2018-08-30T05:37:23.592Z,15.80
2018-08-30T05:39:49.904Z,15.05
2018-08-30T05:42:16.196Z,15.40
2018-08-30T05:44:42.567Z,16.10
2018-08-30T05:47:08.818Z,14.00
2018-08-30T05:49:35.145Z,14.80
2018-08-30T05:52:01.456Z,15.87
2018-08-30T05:54:27.749Z,16.15
2018-08-30T05:56:54.137Z,14.68
2018-08-30T05:59:20.436Z,16.60
2018-08-30T06:01:46.740Z,15.78
2018-08-30T06:04:13.058Z,15.90
2018-08-30T06:06:39.358Z,14.65
2018-08-30T06:09:05.864Z,15.23
2018-08-30T06:11:32.255Z,14.70
2018-08-30T06:13:58.536Z,15.20
2018-08-30T06:16:25.162Z,15.45
2018-08-30T06:18:51.469Z,14.23
2018-08-30T06:21:17.771Z,14.03
2018-08-30T06:23:44.104Z,14.38
2018-08-30T06:26:10.434Z,14.28
2018-08-30T06:28:36.743Z,14.25
2018-08-30T06:31:03.055Z,16.05
2018-08-30T06:33:29.375Z,16.00
2018-08-30T06:35:55.685Z,15.93
2018-08-30T06:38:22.001Z,16.37
2018-08-30T06:40:48.341Z,16.25
2018-08-30T06:43:14.633Z,16.12
2018-08-30T06:45:41.017Z,15.98
2018-08-30T06:48:07.991Z,16.73
2018-08-30T06:50:34.410Z,17.57
2018-08-30T06:53:00.709Z,16.63
2018-08-30T06:55:27.075Z,16.43
2018-08-30T06:57:53.373Z,16.70
2018-08-30T07:00:19.756Z,16.67
2018-08-30T07:02:46.041Z,17.15
2018-08-30T07:05:12.383Z,16.43
2018-08-30T07:07:38.721Z,16.97
2018-08-30T07:10:05.025Z,16.35
2018-08-30T07:12:31.305Z,17.23
2018-08-30T07:14:57.752Z,17.05
2018-08-30T07:17:24.065Z,16.45
2018-08-30T07:19:50.387Z,15.10
2018-08-30T07:22:16.670Z,14.33
2018-08-30T07:24:43.240Z,14.70
2018-08-30T07:27:09.649Z,15.38
2018-08-30T07:29:36.048Z,15.30
2018-08-30T07:32:02.660Z,15.10
2018-08-30T07:34:28.964Z,14.13
2018-08-30T07:36:55.260Z,15.43
2018-08-30T07:39:21.592Z,14.25
2018-08-30T07:41:47.968Z,14.13
2018-08-30T07:44:14.313Z,14.23
2018-08-30T07:46:40.607Z,14.58
2018-08-30T07:49:08.039Z,14.73
2018-08-30T07:51:34.402Z,14.40
2018-08-30T07:54:00.684Z,15.78
2018-08-30T07:56:27.026Z,14.65
2018-08-30T07:58:53.398Z,15.03
2018-08-30T08:01:19.735Z,15.57
2018-08-30T08:03:46.006Z,14.93
2018-08-30T08:06:12.554Z,15.97
2018-08-30T08:08:38.837Z,14.17
2018-08-30T08:11:05.180Z,15.37
2018-08-30T08:13:31.597Z,14.90
2018-08-30T08:15:58.026Z,13.60
2018-08-30T08:18:24.463Z,14.23
2018-08-30T08:20:50.766Z,14.15
2018-08-30T08:23:17.109Z,15.18
2018-08-30T08:25:43.643Z,14.55
2018-08-30T08:28:10.674Z,14.95
2018-08-30T08:30:37.171Z,16.65
2018-08-30T08:33:03.553Z,15.32
2018-08-30T08:35:29.951Z,15.00
2018-08-30T08:37:56.409Z,15.78
2018-08-30T08:40:22.821Z,15.40
2018-08-30T08:42:49.260Z,15.03
2018-08-30T08:45:15.659Z,15.40
2018-08-30T08:47:42.245Z,15.40
2018-08-30T08:50:08.665Z,15.18
2018-08-30T08:52:35.085Z,15.48
2018-08-30T08:55:01.622Z,15.30
2018-08-30T08:57:28.115Z,17.10
2018-08-30T08:59:54.745Z,17.63
2018-08-30T09:02:21.128Z,17.65
2018-08-30T09:04:47.517Z,17.23
2018-08-30T09:07:13.895Z,19.75
2018-08-30T09:09:40.276Z,21.30
2018-08-30T09:12:06.665Z,22.85
2018-08-30T09:14:33.078Z,21.33
2018-08-30T09:16:59.420Z,23.00
2018-08-30T09:19:25.703Z,20.62
2018-08-30T09:21:52.076Z,21.50
2018-08-30T09:24:18.354Z,19.85
2018-08-30T09:26:44.669Z,20.35
2018-08-30T09:29:10.981Z,18.95
2018-08-30T09:31:37.306Z,19.95
2018-08-30T09:34:03.618Z,20.62
2018-08-30T09:36:30.096Z,25.70
2018-08-30T09:38:56.523Z,20.82
2018-08-30T09:41:22.915Z,21.80
2018-08-30T09:43:49.416Z,20.00
2018-08-30T09:46:15.739Z,20.57
2018-08-30T09:48:42.141Z,21.17
2018-08-30T09:51:08.466Z,18.95
2018-08-30T09:53:34.793Z,19.00
2018-08-30T09:56:01.615Z,18.10
2018-08-30T09:58:28.289Z,18.03
2018-08-30T10:01:00.406Z,17.45
2018-08-30T10:03:26.744Z,17.05
2018-08-30T10:05:53.041Z,16.97
2018-08-30T10:08:19.354Z,17.45
2018-08-30T10:10:45.754Z,16.45
2018-08-30T10:13:12.093Z,17.37
2018-08-30T10:15:38.389Z,16.75
2018-08-30T10:18:04.837Z,16.10
2018-08-30T10:20:31.237Z,15.48
2018-08-30T10:23:01.506Z,15.13
2018-08-30T10:25:28.000Z,15.85
2018-08-30T10:27:54.472Z,16.25
2018-08-30T10:30:20.916Z,14.85
2018-08-30T10:32:47.444Z,15.95
2018-08-30T10:35:13.872Z,16.55
2018-08-30T10:37:40.276Z,15.53
2018-08-30T10:40:06.860Z,15.48
2018-08-30T10:42:33.156Z,15.28
2018-08-30T10:44:59.481Z,14.38
2018-08-30T10:47:25.782Z,15.00
2018-08-30T10:49:52.129Z,14.15
2018-08-30T10:52:18.394Z,14.20
2018-08-30T10:54:44.713Z,14.05
2018-08-30T10:57:11.106Z,12.40
2018-08-30T10:59:37.440Z,14.43
2018-08-30T11:26:34.064Z,9.10
2018-08-30T12:02:26.701Z,11.20
2018-08-30T12:04:53.714Z,12.13
2018-08-30T12:07:19.732Z,12.63
2018-08-30T12:09:21.733Z,13.30
2018-08-30T12:11:23.797Z,12.00
2018-08-30T12:13:25.714Z,12.30
2018-08-30T12:15:27.886Z,12.30
2018-08-30T12:17:29.904Z,11.43
2018-08-30T12:19:31.978Z,11.28
2018-08-30T12:21:33.974Z,13.03
2018-08-30T12:23:35.921Z,10.90
2018-08-30T12:25:37.924Z,12.20
2018-08-30T12:27:39.962Z,10.23
2018-08-30T12:29:42.041Z,11.50
2018-08-30T12:31:44.112Z,10.57
2018-08-30T12:34:16.176Z,9.15
2018-08-30T12:36:48.186Z,10.47
2018-08-30T12:39:20.257Z,9.90
2018-08-30T12:41:52.341Z,10.15
2018-08-30T12:44:24.314Z,10.17
2018-08-30T12:46:56.337Z,9.83
2018-08-30T12:49:28.362Z,10.30
2018-08-30T12:52:00.402Z,9.58
2018-08-30T12:54:32.423Z,9.30
2018-08-30T12:57:04.636Z,9.03
2018-08-30T12:59:39.275Z,8.70
2018-08-30T13:02:11.252Z,10.00
2018-08-30T13:04:43.396Z,9.25
2018-08-30T13:07:15.317Z,9.48
2018-08-30T13:09:47.323Z,9.43
2018-08-30T13:12:19.472Z,9.53
2018-08-30T13:14:51.621Z,9.10
2018-08-30T13:17:23.468Z,9.78
2018-08-30T13:19:55.420Z,9.43
2018-08-30T13:22:27.561Z,9.85
2018-08-30T13:24:59.728Z,9.37
2018-08-30T13:27:31.696Z,9.53
2018-08-30T13:30:04.196Z,9.53
2018-08-30T13:32:36.181Z,10.60
2018-08-30T13:35:08.158Z,11.33
2018-08-30T13:37:40.163Z,10.57
2018-08-30T13:40:12.417Z,10.60
2018-08-30T13:42:44.621Z,10.80
2018-08-30T13:45:16.628Z,10.20
2018-08-30T13:47:48.733Z,10.50
2018-08-30T13:50:21.598Z,11.37
2018-08-30T13:52:53.713Z,10.03
2018-08-30T13:55:25.994Z,10.80
2018-08-30T13:57:58.282Z,9.75
2018-08-30T14:00:30.272Z,9.70
2018-08-30T14:03:02.249Z,9.83
2018-08-30T14:05:34.234Z,9.15
2018-08-30T14:08:06.074Z,9.35
2018-08-30T14:10:38.196Z,9.60
2018-08-30T14:13:10.156Z,10.03
2018-08-30T14:15:41.916Z,9.80
2018-08-30T14:18:13.982Z,9.43
2018-08-30T14:20:45.946Z,8.80
2018-08-30T14:23:17.953Z,9.18
2018-08-30T14:25:49.914Z,9.50
2018-08-30T14:28:21.965Z,9.25
2018-08-30T14:30:54.049Z,9.38
2018-08-30T14:33:26.150Z,9.83
2018-08-30T14:35:58.270Z,10.05
2018-08-30T14:38:30.269Z,11.53
2018-08-30T14:41:02.495Z,9.80
2018-08-30T14:43:34.315Z,11.43
2018-08-30T14:46:06.423Z,11.25
2018-08-30T14:48:38.370Z,9.98
2018-08-30T14:51:10.473Z,11.05
2018-08-30T14:53:42.410Z,10.30
2018-08-30T14:56:14.538Z,10.40
2018-08-30T14:58:46.494Z,10.63
2018-08-30T15:01:18.646Z,11.08
2018-08-30T15:03:50.624Z,10.33
2018-08-30T15:06:22.644Z,10.10
2018-08-30T15:08:54.685Z,9.03
2018-08-30T15:11:26.803Z,10.20
2018-08-30T15:13:59.735Z,9.83
2018-08-30T15:16:31.738Z,9.77
2018-08-30T15:19:03.757Z,9.23
2018-08-30T15:21:35.766Z,9.23
2018-08-30T15:24:07.772Z,9.57
2018-08-30T15:26:39.800Z,8.23
2018-08-30T15:29:11.831Z,7.90
2018-08-30T15:31:43.813Z,8.48
2018-08-30T15:34:15.905Z,9.00
2018-08-30T15:36:47.952Z,9.50
2018-08-30T15:39:20.031Z,12.40
2018-08-30T15:41:52.167Z,11.17
2018-08-30T15:44:24.095Z,12.50
2018-08-30T15:46:56.140Z,12.33
2018-08-30T15:49:28.383Z,13.87
2018-08-30T15:52:00.438Z,16.03
2018-08-30T15:54:32.493Z,13.80
2018-08-30T15:57:04.622Z,14.63
2018-08-30T15:59:36.667Z,16.30
2018-08-30T16:02:08.716Z,15.47
2018-08-30T16:04:40.757Z,16.60
2018-08-30T16:07:12.831Z,13.13
2018-08-30T16:09:44.890Z,16.00
2018-08-30T16:12:16.915Z,16.93
2018-08-30T16:14:48.918Z,13.77
2018-08-30T16:17:20.961Z,14.00
2018-08-30T16:19:52.942Z,14.03
2018-08-30T16:22:35.295Z,12.77
2018-08-30T16:25:07.318Z,12.80
2018-08-30T16:27:39.347Z,13.07
2018-08-30T16:30:11.384Z,15.33
2018-08-30T16:32:43.426Z,15.27
2018-08-30T16:35:15.552Z,14.63
2018-08-30T16:37:47.541Z,13.10
2018-08-30T16:40:19.586Z,16.37
2018-08-30T16:42:51.647Z,17.60
2018-08-30T16:45:23.667Z,14.60
2018-08-30T16:47:55.779Z,14.60
2018-08-30T16:50:27.874Z,13.43
2018-08-30T16:52:59.901Z,13.37
2018-08-30T16:55:32.094Z,12.97
2018-08-30T16:58:04.455Z,13.97
2018-08-30T17:00:36.486Z,14.07
2018-08-30T17:03:08.729Z,13.90
2018-08-30T17:05:40.765Z,13.47
2018-08-30T17:08:12.809Z,13.93
2018-08-30T17:10:45.110Z,13.70
2018-08-30T17:13:17.139Z,14.60
2018-08-30T17:15:49.229Z,14.67
2018-08-30T17:18:21.246Z,14.37
2018-08-30T17:20:54.442Z,15.03
2018-08-30T17:23:26.449Z,14.73
2018-08-30T17:25:58.462Z,13.83
2018-08-30T17:28:30.502Z,15.40
2018-08-30T17:31:02.588Z,15.07
2018-08-30T17:33:35.365Z,16.40
2018-08-30T17:36:07.370Z,15.60
2018-08-30T17:38:39.365Z,15.97
2018-08-30T17:41:11.394Z,17.93
2018-08-30T17:43:43.415Z,17.83
2018-08-30T17:46:15.453Z,17.10
2018-08-30T17:48:47.458Z,17.67
2018-08-30T17:51:19.552Z,17.27
2018-08-30T17:53:51.566Z,20.50
2018-08-30T17:56:23.602Z,19.40
2018-08-30T17:58:55.586Z,19.17
2018-08-30T18:01:27.748Z,17.43
2018-08-30T18:03:59.668Z,17.57
2018-08-30T18:06:31.686Z,16.53
2018-08-30T18:09:05.493Z,16.50
2018-08-30T18:11:37.657Z,17.60
2018-08-30T18:14:09.650Z,15.70
2018-08-30T18:16:41.655Z,15.70
2018-08-30T18:19:13.670Z,15.93
2018-08-30T18:21:45.699Z,18.20
2018-08-30T18:24:17.731Z,17.37
2018-08-30T18:26:49.696Z,17.23
2018-08-30T18:29:21.709Z,20.10
2018-08-30T18:31:53.724Z,20.37
2018-08-30T18:34:25.761Z,19.80
2018-08-30T18:36:57.782Z,19.47
2018-08-30T18:39:29.794Z,22.40
2018-08-30T18:42:01.825Z,23.70
2018-08-30T18:44:33.834Z,23.30
2018-08-30T18:47:05.852Z,23.43
2018-08-30T18:49:37.912Z,23.10
2018-08-30T18:52:09.935Z,23.80
2018-08-30T18:54:41.951Z,18.70
2018-08-30T18:57:13.924Z,19.70
2018-08-30T18:59:46.105Z,18.50
2018-08-30T19:02:18.383Z,19.20
2018-08-30T19:04:50.387Z,17.97
2018-08-30T19:07:22.677Z,15.73
2018-08-30T19:09:54.640Z,18.90
2018-08-30T19:12:26.683Z,16.27
2018-08-30T19:14:58.679Z,16.30
2018-08-30T19:17:36.695Z,16.83
2018-08-30T19:20:08.674Z,16.73
2018-08-30T19:22:40.697Z,15.87
2018-08-30T19:25:13.366Z,14.67
2018-08-30T19:27:45.564Z,14.17
2018-08-30T19:30:23.437Z,15.30
2018-08-30T19:32:56.889Z,14.63
2018-08-30T19:35:34.833Z,14.10
2018-08-30T19:38:06.862Z,12.47
2018-08-30T19:40:44.678Z,11.93
2018-08-30T19:43:16.703Z,12.27
2018-08-30T19:45:48.735Z,11.53
2018-08-30T19:48:20.740Z,11.83
2018-08-30T19:50:52.737Z,12.03
2018-08-30T19:53:24.739Z,11.83
2018-08-30T19:55:56.743Z,12.40
2018-08-30T19:58:28.913Z,13.20
2018-08-30T20:01:01.631Z,13.73
2018-08-30T20:03:34.522Z,15.27
2018-08-30T20:06:06.866Z,16.33
2018-08-30T20:08:38.877Z,15.27
2018-08-30T20:11:10.942Z,15.87
2018-08-30T20:13:43.221Z,12.90
2018-08-30T20:16:16.649Z,14.47
2018-08-30T20:18:48.699Z,13.83
2018-08-30T20:21:20.736Z,14.07
2018-08-30T20:23:52.770Z,13.43
2018-08-30T20:26:24.879Z,12.50
2018-08-30T20:28:56.908Z,14.20
2018-08-30T20:31:30.380Z,15.13
2018-08-30T20:34:02.473Z,13.47
2018-08-30T20:36:34.550Z,13.13
2018-08-30T20:39:06.587Z,15.07
2018-08-30T20:41:38.593Z,12.23
2018-08-30T20:44:10.598Z,13.73
2018-08-30T20:46:42.636Z,13.87
2018-08-30T20:49:14.566Z,15.20
2018-08-30T20:51:46.649Z,12.23
2018-08-30T20:54:18.723Z,17.63
2018-08-30T20:56:50.758Z,11.53
2018-08-30T20:59:22.799Z,11.27
2018-08-30T21:01:56.486Z,10.30
2018-08-30T21:04:28.511Z,9.90
2018-08-30T21:07:00.558Z,10.27
2018-08-30T21:09:32.565Z,8.83
2018-08-30T21:12:04.640Z,8.40
2018-08-30T21:14:36.642Z,8.40
2018-08-30T21:17:08.629Z,7.93
2018-08-30T21:19:42.575Z,8.20
2018-08-30T21:22:14.655Z,7.90
2018-08-30T21:24:46.718Z,7.87
2018-08-30T21:27:18.745Z,6.40
2018-08-30T21:29:50.889Z,7.73
2018-08-30T21:32:22.902Z,7.40
2018-08-30T21:34:54.925Z,7.40
2018-08-30T21:37:27.242Z,6.40
2018-08-30T21:39:59.541Z,7.37
2018-08-30T21:42:31.586Z,6.23
2018-08-30T21:45:03.616Z,5.87
2018-08-30T21:47:35.759Z,6.93
2018-08-30T21:50:07.852Z,5.10
2018-08-30T21:52:39.924Z,5.03
2018-08-30T21:55:11.966Z,5.67
2018-08-30T21:57:43.952Z,4.37
2018-08-30T22:00:15.963Z,4.30
2018-08-30T22:02:48.152Z,5.50
2018-08-30T22:05:20.093Z,4.33
2018-08-30T22:07:52.209Z,3.87
2018-08-30T22:10:24.262Z,4.43
2018-08-30T22:12:56.777Z,3.77
2018-08-30T22:15:28.778Z,3.93
2018-08-30T22:18:00.979Z,3.50
2018-08-30T22:20:33.683Z,3.73
2018-08-30T22:23:05.792Z,3.60
2018-08-30T22:25:37.829Z,4.00
2018-08-30T22:28:09.904Z,3.80
2018-08-30T22:30:41.937Z,4.57
2018-08-30T22:33:18.090Z,4.70
2018-08-30T22:35:50.088Z,4.50
2018-08-30T22:38:22.133Z,4.20
2018-08-30T22:40:57.497Z,4.57
2018-08-30T22:43:29.970Z,3.70
2018-08-30T22:46:02.095Z,4.77
2018-08-30T22:48:34.156Z,5.53
2018-08-30T22:51:06.212Z,4.23
2018-08-30T22:53:38.281Z,3.83
2018-08-30T22:56:11.502Z,4.80
2018-08-30T22:58:43.605Z,4.30
2018-08-30T23:01:15.656Z,4.40
2018-08-30T23:03:47.762Z,4.03
2018-08-30T23:06:19.773Z,3.60
2018-08-30T23:08:51.802Z,3.77
2018-08-30T23:11:24.233Z,3.73
2018-08-30T23:13:56.242Z,4.30
2018-08-30T23:16:28.255Z,4.97
2018-08-30T23:19:00.778Z,4.03
2018-08-30T23:21:33.348Z,4.00
2018-08-30T23:24:05.465Z,3.50
2018-08-30T23:26:37.494Z,3.30
2018-08-30T23:29:09.625Z,3.73
2018-08-30T23:31:41.716Z,3.80
2018-08-30T23:34:13.758Z,3.37
2018-08-30T23:36:45.900Z,3.50
2018-08-30T23:39:17.929Z,3.67
2018-08-30T23:41:50.001Z,2.60
2018-08-30T23:44:22.006Z,3.00
2018-08-30T23:46:54.005Z,3.57
2018-08-30T23:49:27.714Z,2.90
2018-08-30T23:51:59.743Z,2.10
2018-08-30T23:54:31.777Z,3.00
2018-08-30T23:57:04.105Z,2.80
2018-08-30T23:59:47.913Z,4.00
